sensor_id;sensor_type;location;lat;lon;timestamp;temperature;humidity
463;DHT22;218;51.902;9.542;2023-05-10T00:01:36;19.20;1.00
463;DHT22;218;51.902;9.542;2023-05-10T00:06:30;19.00;1.00
463;DHT22;218;51.902;9.542;2023-05-10T00:08:58;19.10;1.00
463;DHT22;218;51.902;9.542;2023-05-10T00:11:24;18.60;1.00
463;DHT22;218;51.902;9.542;2023-05-10T00:16:20;19.10;1.00
463;DHT22;218;51.902;9.542;2023-05-10T00:21:14;18.80;1.00
463;DHT22;218;51.902;9.542;2023-05-10T00:31:04;18.70;1.00
463;DHT22;218;51.902;9.542;2023-05-10T00:35:58;18.80;1.00
463;DHT22;218;51.902;9.542;2023-05-10T00:40:52;18.80;1.00
463;DHT22;218;51.902;9.542;2023-05-10T00:43:19;18.40;1.00
463;DHT22;218;51.902;9.542;2023-05-10T00:45:46;18.60;1.00
463;DHT22;218;51.902;9.542;2023-05-10T00:53:09;18.60;1.00
463;DHT22;218;51.902;9.542;2023-05-10T00:58:04;18.40;1.00
463;DHT22;218;51.902;9.542;2023-05-10T01:02:59;18.60;1.00
463;DHT22;218;51.902;9.542;2023-05-10T01:05:28;18.50;1.00
463;DHT22;218;51.902;9.542;2023-05-10T01:12:49;18.40;1.00
463;DHT22;218;51.902;9.542;2023-05-10T01:17:45;18.60;1.00
463;DHT22;218;51.902;9.542;2023-05-10T01:20:13;18.40;1.00
463;DHT22;218;51.902;9.542;2023-05-10T01:37:31;18.40;1.00
463;DHT22;218;51.902;9.542;2023-05-10T01:40:04;18.20;1.00
463;DHT22;218;51.902;9.542;2023-05-10T01:45:27;18.30;1.00
463;DHT22;218;51.902;9.542;2023-05-10T01:53:01;18.40;1.00
463;DHT22;218;51.902;9.542;2023-05-10T01:58:01;18.10;1.00
463;DHT22;218;51.902;9.542;2023-05-10T02:00:29;18.20;1.00
463;DHT22;218;51.902;9.542;2023-05-10T02:03:01;18.20;1.00
463;DHT22;218;51.902;9.542;2023-05-10T02:05:32;17.90;1.00
463;DHT22;218;51.902;9.542;2023-05-10T02:10:28;18.10;1.00
463;DHT22;218;51.902;9.542;2023-05-10T02:15:26;18.20;1.00
463;DHT22;218;51.902;9.542;2023-05-10T02:17:55;18.00;1.00
463;DHT22;218;51.902;9.542;2023-05-10T02:25:23;17.90;1.00
463;DHT22;218;51.902;9.542;2023-05-10T02:27:53;18.10;1.00
463;DHT22;218;51.902;9.542;2023-05-10T02:37:47;18.10;1.00
463;DHT22;218;51.902;9.542;2023-05-10T02:47:39;17.80;1.00
463;DHT22;218;51.902;9.542;2023-05-10T02:50:07;18.20;1.00
463;DHT22;218;51.902;9.542;2023-05-10T02:52:40;18.00;1.00
463;DHT22;218;51.902;9.542;2023-05-10T02:55:12;18.10;1.00
463;DHT22;218;51.902;9.542;2023-05-10T02:57:43;17.80;1.00
463;DHT22;218;51.902;9.542;2023-05-10T03:07:33;17.80;1.00
463;DHT22;218;51.902;9.542;2023-05-10T03:15:03;18.00;1.00
463;DHT22;218;51.902;9.542;2023-05-10T03:20:06;18.00;1.00
463;DHT22;218;51.902;9.542;2023-05-10T03:25:06;17.80;1.00
463;DHT22;218;51.902;9.542;2023-05-10T03:27:37;18.00;1.00
463;DHT22;218;51.902;9.542;2023-05-10T03:30:08;17.90;1.00
463;DHT22;218;51.902;9.542;2023-05-10T03:32:37;17.70;1.00
463;DHT22;218;51.902;9.542;2023-05-10T03:37:34;17.80;1.00
463;DHT22;218;51.902;9.542;2023-05-10T03:40:01;17.70;1.00
463;DHT22;218;51.902;9.542;2023-05-10T03:42:28;17.80;1.00
463;DHT22;218;51.902;9.542;2023-05-10T03:44:56;17.90;1.00
463;DHT22;218;51.902;9.542;2023-05-10T03:52:18;17.70;1.00
463;DHT22;218;51.902;9.542;2023-05-10T03:54:45;17.90;1.00
463;DHT22;218;51.902;9.542;2023-05-10T03:57:12;17.40;1.00
463;DHT22;218;51.902;9.542;2023-05-10T03:59:39;17.80;1.00
463;DHT22;218;51.902;9.542;2023-05-10T04:02:07;17.70;1.00
463;DHT22;218;51.902;9.542;2023-05-10T04:04:34;17.80;1.00
463;DHT22;218;51.902;9.542;2023-05-10T04:07:01;18.30;1.00
463;DHT22;218;51.902;9.542;2023-05-10T04:09:27;17.50;1.00
463;DHT22;218;51.902;9.542;2023-05-10T04:14:21;17.70;1.00
463;DHT22;218;51.902;9.542;2023-05-10T04:19:17;17.60;1.00
463;DHT22;218;51.902;9.542;2023-05-10T04:21:44;17.70;1.00
463;DHT22;218;51.902;9.542;2023-05-10T04:26:38;18.00;1.00
463;DHT22;218;51.902;9.542;2023-05-10T04:29:05;17.60;1.00
463;DHT22;218;51.902;9.542;2023-05-10T04:31:32;17.60;1.00
463;DHT22;218;51.902;9.542;2023-05-10T04:41:22;17.60;1.00
463;DHT22;218;51.902;9.542;2023-05-10T04:43:50;18.20;1.00
463;DHT22;218;51.902;9.542;2023-05-10T04:56:07;17.50;1.00
463;DHT22;218;51.902;9.542;2023-05-10T04:58:34;17.50;1.00
463;DHT22;218;51.902;9.542;2023-05-10T05:01:05;17.40;1.00
463;DHT22;218;51.902;9.542;2023-05-10T05:10:56;17.40;1.00
463;DHT22;218;51.902;9.542;2023-05-10T05:13:23;17.80;1.00
463;DHT22;218;51.902;9.542;2023-05-10T05:15:50;17.50;1.00
463;DHT22;218;51.902;9.542;2023-05-10T05:25:38;17.80;1.00
463;DHT22;218;51.902;9.542;2023-05-10T05:33:00;17.70;1.00
463;DHT22;218;51.902;9.542;2023-05-10T05:50:12;17.40;1.00
463;DHT22;218;51.902;9.542;2023-05-10T05:52:39;17.60;1.00
463;DHT22;218;51.902;9.542;2023-05-10T05:57:33;17.70;1.00
463;DHT22;218;51.902;9.542;2023-05-10T06:00:00;17.90;1.00
463;DHT22;218;51.902;9.542;2023-05-10T06:04:57;17.60;1.00
463;DHT22;218;51.902;9.542;2023-05-10T06:14:45;18.00;1.00
463;DHT22;218;51.902;9.542;2023-05-10T06:24:35;18.10;1.00
463;DHT22;218;51.902;9.542;2023-05-10T06:27:02;18.00;1.00
463;DHT22;218;51.902;9.542;2023-05-10T06:29:29;18.40;1.00
463;DHT22;218;51.902;9.542;2023-05-10T06:34:24;18.10;1.00
463;DHT22;218;51.902;9.542;2023-05-10T06:36:52;17.90;1.00
463;DHT22;218;51.902;9.542;2023-05-10T06:44:13;18.20;1.00
463;DHT22;218;51.902;9.542;2023-05-10T06:46:40;18.30;1.00
463;DHT22;218;51.902;9.542;2023-05-10T06:51:34;18.20;1.00
463;DHT22;218;51.902;9.542;2023-05-10T06:56:30;18.40;1.00
463;DHT22;218;51.902;9.542;2023-05-10T06:58:57;18.40;1.00
463;DHT22;218;51.902;9.542;2023-05-10T07:03:51;18.00;1.00
463;DHT22;218;51.902;9.542;2023-05-10T07:06:18;18.40;1.00
463;DHT22;218;51.902;9.542;2023-05-10T07:11:13;18.40;1.00
463;DHT22;218;51.902;9.542;2023-05-10T07:16:10;18.60;1.00
463;DHT22;218;51.902;9.542;2023-05-10T07:18:37;18.50;1.00
463;DHT22;218;51.902;9.542;2023-05-10T07:21:03;18.60;1.00
463;DHT22;218;51.902;9.542;2023-05-10T07:25:58;18.80;1.00
463;DHT22;218;51.902;9.542;2023-05-10T07:30:54;18.90;1.00
463;DHT22;218;51.902;9.542;2023-05-10T07:35:49;18.80;1.00
463;DHT22;218;51.902;9.542;2023-05-10T07:45:39;18.70;1.00
463;DHT22;218;51.902;9.542;2023-05-10T07:50:33;18.90;1.00
463;DHT22;218;51.902;9.542;2023-05-10T07:53:00;18.80;1.00
463;DHT22;218;51.902;9.542;2023-05-10T08:02:50;19.10;1.00
463;DHT22;218;51.902;9.542;2023-05-10T08:12:38;19.20;1.00
463;DHT22;218;51.902;9.542;2023-05-10T08:15:06;19.20;1.00
463;DHT22;218;51.902;9.542;2023-05-10T08:17:33;19.10;1.00
463;DHT22;218;51.902;9.542;2023-05-10T08:20:01;19.20;1.00
463;DHT22;218;51.902;9.542;2023-05-10T08:22:28;19.20;1.00
463;DHT22;218;51.902;9.542;2023-05-10T08:27:23;19.20;1.00
463;DHT22;218;51.902;9.542;2023-05-10T08:29:51;19.30;1.00
463;DHT22;218;51.902;9.542;2023-05-10T08:32:18;19.20;1.00
463;DHT22;218;51.902;9.542;2023-05-10T08:34:45;19.30;1.00
463;DHT22;218;51.902;9.542;2023-05-10T08:39:42;19.50;1.00
463;DHT22;218;51.902;9.542;2023-05-10T08:42:09;19.40;1.00
463;DHT22;218;51.902;9.542;2023-05-10T08:44:36;19.40;1.00
463;DHT22;218;51.902;9.542;2023-05-10T08:57:00;19.40;1.00
463;DHT22;218;51.902;9.542;2023-05-10T08:59:28;19.60;1.00
463;DHT22;218;51.902;9.542;2023-05-10T09:04:25;19.40;1.00
463;DHT22;218;51.902;9.542;2023-05-10T09:06:52;19.40;1.00
463;DHT22;218;51.902;9.542;2023-05-10T09:11:48;19.50;1.00
463;DHT22;218;51.902;9.542;2023-05-10T09:16:42;20.50;1.00
463;DHT22;218;51.902;9.542;2023-05-10T09:21:37;19.80;1.00
463;DHT22;218;51.902;9.542;2023-05-10T09:24:05;19.90;1.00
463;DHT22;218;51.902;9.542;2023-05-10T09:26:32;19.90;1.00
463;DHT22;218;51.902;9.542;2023-05-10T09:31:45;20.10;1.00
463;DHT22;218;51.902;9.542;2023-05-10T09:34:16;20.20;1.00
463;DHT22;218;51.902;9.542;2023-05-10T09:41:48;20.30;1.00
463;DHT22;218;51.902;9.542;2023-05-10T09:44:18;20.50;1.00
463;DHT22;218;51.902;9.542;2023-05-10T09:46:49;20.50;1.00
463;DHT22;218;51.902;9.542;2023-05-10T09:49:21;20.60;1.00
463;DHT22;218;51.902;9.542;2023-05-10T09:52:01;20.70;1.00
463;DHT22;218;51.902;9.542;2023-05-10T09:54:29;20.80;1.00
463;DHT22;218;51.902;9.542;2023-05-10T09:56:55;20.80;1.00
463;DHT22;218;51.902;9.542;2023-05-10T09:59:25;21.00;1.00
463;DHT22;218;51.902;9.542;2023-05-10T10:01:53;21.10;1.00
463;DHT22;218;51.902;9.542;2023-05-10T10:04:22;21.20;1.00
463;DHT22;218;51.902;9.542;2023-05-10T10:06:59;21.20;1.00
463;DHT22;218;51.902;9.542;2023-05-10T10:09:27;21.30;1.00
463;DHT22;218;51.902;9.542;2023-05-10T10:16:51;21.50;1.00
463;DHT22;218;51.902;9.542;2023-05-10T10:19:18;21.60;1.00
463;DHT22;218;51.902;9.542;2023-05-10T10:21:45;21.60;1.00
463;DHT22;218;51.902;9.542;2023-05-10T10:24:12;21.60;1.00
463;DHT22;218;51.902;9.542;2023-05-10T10:26:40;21.70;1.00
463;DHT22;218;51.902;9.542;2023-05-10T10:29:18;21.80;1.00
463;DHT22;218;51.902;9.542;2023-05-10T10:31:50;21.90;1.00
463;DHT22;218;51.902;9.542;2023-05-10T10:34:25;22.00;1.00
463;DHT22;218;51.902;9.542;2023-05-10T10:36:54;22.20;1.00
463;DHT22;218;51.902;9.542;2023-05-10T10:39:22;22.30;1.00
463;DHT22;218;51.902;9.542;2023-05-10T10:41:51;22.50;1.00
463;DHT22;218;51.902;9.542;2023-05-10T10:44:36;22.50;1.00
463;DHT22;218;51.902;9.542;2023-05-10T10:47:06;22.70;1.00
463;DHT22;218;51.902;9.542;2023-05-10T10:49:43;22.70;1.00
463;DHT22;218;51.902;9.542;2023-05-10T10:52:24;22.80;1.00
463;DHT22;218;51.902;9.542;2023-05-10T10:54:58;22.80;1.00
463;DHT22;218;51.902;9.542;2023-05-10T10:57:25;22.80;1.00
463;DHT22;218;51.902;9.542;2023-05-10T11:00:27;22.80;1.00
463;DHT22;218;51.902;9.542;2023-05-10T11:02:56;22.80;1.00
463;DHT22;218;51.902;9.542;2023-05-10T11:05:46;22.90;1.00
463;DHT22;218;51.902;9.542;2023-05-10T11:08:18;22.90;1.00
463;DHT22;218;51.902;9.542;2023-05-10T11:10:52;22.90;1.00
463;DHT22;218;51.902;9.542;2023-05-10T11:13:28;22.80;1.00
463;DHT22;218;51.902;9.542;2023-05-10T11:15:55;22.80;1.00
463;DHT22;218;51.902;9.542;2023-05-10T11:18:25;22.70;1.00
463;DHT22;218;51.902;9.542;2023-05-10T11:20:56;22.70;1.00
463;DHT22;218;51.902;9.542;2023-05-10T11:23:28;22.50;1.00
463;DHT22;218;51.902;9.542;2023-05-10T11:25:55;22.50;1.00
463;DHT22;218;51.902;9.542;2023-05-10T11:28:23;22.40;1.00
463;DHT22;218;51.902;9.542;2023-05-10T11:30:50;22.40;1.00
463;DHT22;218;51.902;9.542;2023-05-10T11:33:18;22.40;1.00
463;DHT22;218;51.902;9.542;2023-05-10T11:35:46;22.50;1.00
463;DHT22;218;51.902;9.542;2023-05-10T11:38:14;22.50;1.00
463;DHT22;218;51.902;9.542;2023-05-10T11:40:41;22.50;1.00
463;DHT22;218;51.902;9.542;2023-05-10T11:43:09;22.60;1.00
463;DHT22;218;51.902;9.542;2023-05-10T11:45:37;22.60;1.00
463;DHT22;218;51.902;9.542;2023-05-10T11:48:04;22.70;1.00
463;DHT22;218;51.902;9.542;2023-05-10T11:50:31;22.80;1.00
463;DHT22;218;51.902;9.542;2023-05-10T11:52:58;22.90;1.00
463;DHT22;218;51.902;9.542;2023-05-10T11:55:26;22.90;1.00
463;DHT22;218;51.902;9.542;2023-05-10T11:58:00;23.00;1.00
463;DHT22;218;51.902;9.542;2023-05-10T12:00:28;23.00;1.00
463;DHT22;218;51.902;9.542;2023-05-10T12:02:56;23.20;1.00
463;DHT22;218;51.902;9.542;2023-05-10T12:05:23;23.40;1.00
463;DHT22;218;51.902;9.542;2023-05-10T12:07:50;23.40;1.00
463;DHT22;218;51.902;9.542;2023-05-10T12:10:26;23.60;1.00
463;DHT22;218;51.902;9.542;2023-05-10T12:12:53;23.60;1.00
463;DHT22;218;51.902;9.542;2023-05-10T12:15:21;23.70;1.00
463;DHT22;218;51.902;9.542;2023-05-10T12:17:48;23.80;1.00
463;DHT22;218;51.902;9.542;2023-05-10T12:20:20;23.90;1.00
463;DHT22;218;51.902;9.542;2023-05-10T12:22:51;23.90;1.00
463;DHT22;218;51.902;9.542;2023-05-10T12:25:18;24.00;1.00
463;DHT22;218;51.902;9.542;2023-05-10T12:27:51;24.00;1.00
463;DHT22;218;51.902;9.542;2023-05-10T12:30:22;24.10;1.00
463;DHT22;218;51.902;9.542;2023-05-10T12:32:49;24.20;1.00
463;DHT22;218;51.902;9.542;2023-05-10T12:35:16;24.20;1.00
463;DHT22;218;51.902;9.542;2023-05-10T12:37:46;24.20;1.00
463;DHT22;218;51.902;9.542;2023-05-10T12:40:12;24.20;1.00
463;DHT22;218;51.902;9.542;2023-05-10T12:42:40;24.30;1.00
463;DHT22;218;51.902;9.542;2023-05-10T12:45:09;24.30;1.00
463;DHT22;218;51.902;9.542;2023-05-10T12:47:36;24.30;1.00
463;DHT22;218;51.902;9.542;2023-05-10T12:50:07;24.30;1.00
463;DHT22;218;51.902;9.542;2023-05-10T12:52:34;24.30;1.00
463;DHT22;218;51.902;9.542;2023-05-10T12:55:01;24.30;1.00
463;DHT22;218;51.902;9.542;2023-05-10T12:57:29;24.30;1.00
463;DHT22;218;51.902;9.542;2023-05-10T12:59:56;24.40;1.00
463;DHT22;218;51.902;9.542;2023-05-10T13:02:24;24.50;1.00
463;DHT22;218;51.902;9.542;2023-05-10T13:04:51;24.50;1.00
463;DHT22;218;51.902;9.542;2023-05-10T13:07:18;24.50;1.00
463;DHT22;218;51.902;9.542;2023-05-10T13:09:44;24.50;1.00
463;DHT22;218;51.902;9.542;2023-05-10T13:12:11;24.50;1.00
463;DHT22;218;51.902;9.542;2023-05-10T13:14:38;24.50;1.00
463;DHT22;218;51.902;9.542;2023-05-10T13:17:06;24.50;1.00
463;DHT22;218;51.902;9.542;2023-05-10T13:19:35;24.60;1.00
463;DHT22;218;51.902;9.542;2023-05-10T13:22:03;24.50;1.00
463;DHT22;218;51.902;9.542;2023-05-10T13:24:29;24.50;1.00
463;DHT22;218;51.902;9.542;2023-05-10T13:26:56;24.50;1.00
463;DHT22;218;51.902;9.542;2023-05-10T13:29:23;24.50;1.00
463;DHT22;218;51.902;9.542;2023-05-10T13:31:50;24.50;1.00
463;DHT22;218;51.902;9.542;2023-05-10T13:34:17;24.50;1.00
463;DHT22;218;51.902;9.542;2023-05-10T13:36:47;24.50;1.00
463;DHT22;218;51.902;9.542;2023-05-10T13:39:14;24.50;1.00
463;DHT22;218;51.902;9.542;2023-05-10T13:41:41;24.40;1.00
463;DHT22;218;51.902;9.542;2023-05-10T13:44:08;24.40;1.00
463;DHT22;218;51.902;9.542;2023-05-10T13:46:35;24.40;1.00
463;DHT22;218;51.902;9.542;2023-05-10T13:49:03;24.30;1.00
463;DHT22;218;51.902;9.542;2023-05-10T13:51:30;24.30;1.00
463;DHT22;218;51.902;9.542;2023-05-10T13:53:59;24.30;1.00
463;DHT22;218;51.902;9.542;2023-05-10T13:56:26;24.30;1.00
463;DHT22;218;51.902;9.542;2023-05-10T13:58:53;24.30;1.00
463;DHT22;218;51.902;9.542;2023-05-10T14:01:19;24.40;1.00
463;DHT22;218;51.902;9.542;2023-05-10T14:03:46;24.50;1.00
463;DHT22;218;51.902;9.542;2023-05-10T14:06:13;24.60;1.00
463;DHT22;218;51.902;9.542;2023-05-10T14:08:40;24.70;1.00
463;DHT22;218;51.902;9.542;2023-05-10T14:11:08;24.80;1.00
463;DHT22;218;51.902;9.542;2023-05-10T14:13:35;24.80;1.00
463;DHT22;218;51.902;9.542;2023-05-10T14:16:02;24.80;1.00
463;DHT22;218;51.902;9.542;2023-05-10T14:18:29;24.80;1.00
463;DHT22;218;51.902;9.542;2023-05-10T14:20:56;24.80;1.00
463;DHT22;218;51.902;9.542;2023-05-10T14:23:23;24.70;1.00
463;DHT22;218;51.902;9.542;2023-05-10T14:25:51;24.60;1.00
463;DHT22;218;51.902;9.542;2023-05-10T14:28:19;24.40;1.00
463;DHT22;218;51.902;9.542;2023-05-10T14:30:48;24.20;1.00
463;DHT22;218;51.902;9.542;2023-05-10T14:33:16;23.80;1.00
463;DHT22;218;51.902;9.542;2023-05-10T14:35:42;23.60;1.00
463;DHT22;218;51.902;9.542;2023-05-10T14:38:10;23.40;1.00
463;DHT22;218;51.902;9.542;2023-05-10T14:40:38;23.20;1.00
463;DHT22;218;51.902;9.542;2023-05-10T14:43:04;23.10;1.00
463;DHT22;218;51.902;9.542;2023-05-10T14:45:33;22.90;1.00
463;DHT22;218;51.902;9.542;2023-05-10T14:48:00;22.90;1.00
463;DHT22;218;51.902;9.542;2023-05-10T14:50:30;22.90;1.00
463;DHT22;218;51.902;9.542;2023-05-10T14:52:56;22.80;1.00
463;DHT22;218;51.902;9.542;2023-05-10T14:55:24;22.80;1.00
463;DHT22;218;51.902;9.542;2023-05-10T14:57:50;22.80;1.00
463;DHT22;218;51.902;9.542;2023-05-10T15:00:18;22.80;1.00
463;DHT22;218;51.902;9.542;2023-05-10T15:02:47;22.80;1.00
463;DHT22;218;51.902;9.542;2023-05-10T15:05:14;22.80;1.00
463;DHT22;218;51.902;9.542;2023-05-10T15:07:41;22.90;1.00
463;DHT22;218;51.902;9.542;2023-05-10T15:10:09;22.90;1.00
463;DHT22;218;51.902;9.542;2023-05-10T15:12:37;23.00;1.00
463;DHT22;218;51.902;9.542;2023-05-10T15:15:05;23.00;1.00
463;DHT22;218;51.902;9.542;2023-05-10T15:17:32;23.10;1.00
463;DHT22;218;51.902;9.542;2023-05-10T15:20:00;23.10;1.00
463;DHT22;218;51.902;9.542;2023-05-10T15:22:28;23.20;1.00
463;DHT22;218;51.902;9.542;2023-05-10T15:24:57;23.20;1.00
463;DHT22;218;51.902;9.542;2023-05-10T15:27:23;23.20;1.00
463;DHT22;218;51.902;9.542;2023-05-10T15:29:50;23.20;1.00
463;DHT22;218;51.902;9.542;2023-05-10T15:32:17;23.20;1.00
463;DHT22;218;51.902;9.542;2023-05-10T15:34:44;23.20;1.00
463;DHT22;218;51.902;9.542;2023-05-10T15:37:12;23.20;1.00
463;DHT22;218;51.902;9.542;2023-05-10T15:39:39;23.20;1.00
463;DHT22;218;51.902;9.542;2023-05-10T15:42:06;23.20;1.00
463;DHT22;218;51.902;9.542;2023-05-10T15:44:33;23.30;1.00
463;DHT22;218;51.902;9.542;2023-05-10T15:47:04;23.20;1.00
463;DHT22;218;51.902;9.542;2023-05-10T15:49:31;23.20;1.00
463;DHT22;218;51.902;9.542;2023-05-10T15:51:57;23.20;1.00
463;DHT22;218;51.902;9.542;2023-05-10T15:54:26;23.20;1.00
463;DHT22;218;51.902;9.542;2023-05-10T15:56:53;23.20;1.00
463;DHT22;218;51.902;9.542;2023-05-10T15:59:19;23.20;1.00
463;DHT22;218;51.902;9.542;2023-05-10T16:01:46;23.10;1.00
463;DHT22;218;51.902;9.542;2023-05-10T16:04:14;23.10;1.00
463;DHT22;218;51.902;9.542;2023-05-10T16:06:41;23.00;1.00
463;DHT22;218;51.902;9.542;2023-05-10T16:09:08;23.00;1.00
463;DHT22;218;51.902;9.542;2023-05-10T16:11:36;23.00;1.00
463;DHT22;218;51.902;9.542;2023-05-10T16:14:03;23.00;1.00
463;DHT22;218;51.902;9.542;2023-05-10T16:16:30;22.90;1.00
463;DHT22;218;51.902;9.542;2023-05-10T16:18:57;22.90;1.00
463;DHT22;218;51.902;9.542;2023-05-10T16:21:25;22.90;1.00
463;DHT22;218;51.902;9.542;2023-05-10T16:23:53;22.90;1.00
463;DHT22;218;51.902;9.542;2023-05-10T16:26:20;22.90;1.00
463;DHT22;218;51.902;9.542;2023-05-10T16:28:49;22.90;1.00
463;DHT22;218;51.902;9.542;2023-05-10T16:31:16;22.90;1.00
463;DHT22;218;51.902;9.542;2023-05-10T16:33:44;22.90;1.00
463;DHT22;218;51.902;9.542;2023-05-10T16:36:11;22.80;1.00
463;DHT22;218;51.902;9.542;2023-05-10T16:38:38;22.80;1.00
463;DHT22;218;51.902;9.542;2023-05-10T16:41:06;22.80;1.00
463;DHT22;218;51.902;9.542;2023-05-10T16:43:33;22.80;1.00
463;DHT22;218;51.902;9.542;2023-05-10T16:46:01;22.80;1.00
463;DHT22;218;51.902;9.542;2023-05-10T16:48:28;22.80;1.00
463;DHT22;218;51.902;9.542;2023-05-10T16:50:55;22.70;1.00
463;DHT22;218;51.902;9.542;2023-05-10T16:53:22;22.70;1.00
463;DHT22;218;51.902;9.542;2023-05-10T16:55:49;22.60;1.00
463;DHT22;218;51.902;9.542;2023-05-10T16:58:16;22.50;1.00
463;DHT22;218;51.902;9.542;2023-05-10T17:00:42;22.50;1.00
463;DHT22;218;51.902;9.542;2023-05-10T17:03:11;22.40;1.00
463;DHT22;218;51.902;9.542;2023-05-10T17:05:38;22.30;1.00
463;DHT22;218;51.902;9.542;2023-05-10T17:08:05;22.20;1.00
463;DHT22;218;51.902;9.542;2023-05-10T17:10:33;22.20;1.00
463;DHT22;218;51.902;9.542;2023-05-10T17:13:00;22.10;1.00
463;DHT22;218;51.902;9.542;2023-05-10T17:15:27;22.00;1.00
463;DHT22;218;51.902;9.542;2023-05-10T17:17:55;21.90;1.00
463;DHT22;218;51.902;9.542;2023-05-10T17:20:23;21.80;1.00
463;DHT22;218;51.902;9.542;2023-05-10T17:22:50;21.70;1.00
463;DHT22;218;51.902;9.542;2023-05-10T17:25:18;21.60;1.00
463;DHT22;218;51.902;9.542;2023-05-10T17:27:45;21.60;1.00
463;DHT22;218;51.902;9.542;2023-05-10T17:30:12;21.40;1.00
463;DHT22;218;51.902;9.542;2023-05-10T17:32:39;21.40;1.00
463;DHT22;218;51.902;9.542;2023-05-10T17:35:07;21.40;1.00
463;DHT22;218;51.902;9.542;2023-05-10T17:37:35;21.20;1.00
463;DHT22;218;51.902;9.542;2023-05-10T17:40:03;21.20;1.00
463;DHT22;218;51.902;9.542;2023-05-10T17:42:32;21.10;1.00
463;DHT22;218;51.902;9.542;2023-05-10T17:44:59;21.10;1.00
463;DHT22;218;51.902;9.542;2023-05-10T17:47:28;21.00;1.00
463;DHT22;218;51.902;9.542;2023-05-10T17:49:55;21.00;1.00
463;DHT22;218;51.902;9.542;2023-05-10T17:52:22;21.00;1.00
463;DHT22;218;51.902;9.542;2023-05-10T17:54:50;20.90;1.00
463;DHT22;218;51.902;9.542;2023-05-10T17:57:17;20.90;1.00
463;DHT22;218;51.902;9.542;2023-05-10T17:59:45;20.80;1.00
463;DHT22;218;51.902;9.542;2023-05-10T18:02:12;20.70;1.00
463;DHT22;218;51.902;9.542;2023-05-10T18:04:39;20.70;1.00
463;DHT22;218;51.902;9.542;2023-05-10T18:07:07;20.60;1.00
463;DHT22;218;51.902;9.542;2023-05-10T18:09:34;20.60;1.00
463;DHT22;218;51.902;9.542;2023-05-10T18:12:03;20.40;1.00
463;DHT22;218;51.902;9.542;2023-05-10T18:14:30;20.40;1.00
463;DHT22;218;51.902;9.542;2023-05-10T18:16:57;20.40;1.00
463;DHT22;218;51.902;9.542;2023-05-10T18:19:25;20.40;1.00
463;DHT22;218;51.902;9.542;2023-05-10T18:21:52;20.30;1.00
463;DHT22;218;51.902;9.542;2023-05-10T18:26:47;20.30;1.00
463;DHT22;218;51.902;9.542;2023-05-10T18:29:15;20.20;1.00
463;DHT22;218;51.902;9.542;2023-05-10T18:31:42;20.30;1.00
463;DHT22;218;51.902;9.542;2023-05-10T18:34:09;20.30;1.00
463;DHT22;218;51.902;9.542;2023-05-10T18:36:35;20.20;1.00
463;DHT22;218;51.902;9.542;2023-05-10T18:39:02;20.20;1.00
463;DHT22;218;51.902;9.542;2023-05-10T18:41:29;20.10;1.00
463;DHT22;218;51.902;9.542;2023-05-10T18:43:56;20.10;1.00
463;DHT22;218;51.902;9.542;2023-05-10T18:46:25;20.00;1.00
463;DHT22;218;51.902;9.542;2023-05-10T18:48:52;19.80;1.00
463;DHT22;218;51.902;9.542;2023-05-10T18:51:19;20.10;1.00
463;DHT22;218;51.902;9.542;2023-05-10T18:53:46;20.00;1.00
463;DHT22;218;51.902;9.542;2023-05-10T18:56:14;19.90;1.00
463;DHT22;218;51.902;9.542;2023-05-10T19:01:08;20.00;1.00
463;DHT22;218;51.902;9.542;2023-05-10T19:10:57;19.70;1.00
463;DHT22;218;51.902;9.542;2023-05-10T19:18:30;19.60;1.00
463;DHT22;218;51.902;9.542;2023-05-10T19:20:58;19.50;1.00
463;DHT22;218;51.902;9.542;2023-05-10T19:23:30;19.40;1.00
463;DHT22;218;51.902;9.542;2023-05-10T19:28:24;19.30;1.00
463;DHT22;218;51.902;9.542;2023-05-10T19:30:51;19.30;1.00
463;DHT22;218;51.902;9.542;2023-05-10T19:33:18;19.40;1.00
463;DHT22;218;51.902;9.542;2023-05-10T19:38:13;19.30;1.00
463;DHT22;218;51.902;9.542;2023-05-10T19:43:08;19.00;1.00
463;DHT22;218;51.902;9.542;2023-05-10T19:52:57;19.10;1.00
463;DHT22;218;51.902;9.542;2023-05-10T19:55:27;19.10;1.00
463;DHT22;218;51.902;9.542;2023-05-10T20:00:22;18.60;1.00
463;DHT22;218;51.902;9.542;2023-05-10T20:02:49;18.90;1.00
463;DHT22;218;51.902;9.542;2023-05-10T20:07:43;19.00;1.00
463;DHT22;218;51.902;9.542;2023-05-10T20:15:06;18.60;1.00
463;DHT22;218;51.902;9.542;2023-05-10T20:17:34;18.80;1.00
463;DHT22;218;51.902;9.542;2023-05-10T20:20:01;18.70;1.00
463;DHT22;218;51.902;9.542;2023-05-10T20:24:55;18.60;1.00
463;DHT22;218;51.902;9.542;2023-05-10T20:29:52;18.70;1.00
463;DHT22;218;51.902;9.542;2023-05-10T20:32:18;18.90;1.00
463;DHT22;218;51.902;9.542;2023-05-10T20:34:45;18.70;1.00
463;DHT22;218;51.902;9.542;2023-05-10T20:37:12;18.50;1.00
463;DHT22;218;51.902;9.542;2023-05-10T20:42:06;18.60;1.00
463;DHT22;218;51.902;9.542;2023-05-10T20:44:33;18.70;1.00
463;DHT22;218;51.902;9.542;2023-05-10T20:47:02;18.30;1.00
463;DHT22;218;51.902;9.542;2023-05-10T20:49:29;18.50;1.00
463;DHT22;218;51.902;9.542;2023-05-10T20:51:56;18.50;1.00
463;DHT22;218;51.902;9.542;2023-05-10T20:54:23;18.40;1.00
463;DHT22;218;51.902;9.542;2023-05-10T20:59:17;18.40;1.00
463;DHT22;218;51.902;9.542;2023-05-10T21:01:44;18.50;1.00
463;DHT22;218;51.902;9.542;2023-05-10T21:04:12;18.40;1.00
463;DHT22;218;51.902;9.542;2023-05-10T21:06:41;18.50;1.00
463;DHT22;218;51.902;9.542;2023-05-10T21:09:08;18.80;1.00
463;DHT22;218;51.902;9.542;2023-05-10T21:14:03;18.30;1.00
463;DHT22;218;51.902;9.542;2023-05-10T21:16:30;18.40;1.00
463;DHT22;218;51.902;9.542;2023-05-10T21:18:57;18.40;1.00
463;DHT22;218;51.902;9.542;2023-05-10T21:21:25;18.70;1.00
463;DHT22;218;51.902;9.542;2023-05-10T21:26:19;18.20;1.00
463;DHT22;218;51.902;9.542;2023-05-10T21:28:46;18.70;1.00
463;DHT22;218;51.902;9.542;2023-05-10T21:31:13;18.30;1.00
463;DHT22;218;51.902;9.542;2023-05-10T21:33:40;18.30;1.00
463;DHT22;218;51.902;9.542;2023-05-10T21:36:07;18.30;1.00
463;DHT22;218;51.902;9.542;2023-05-10T21:38:36;18.20;1.00
463;DHT22;218;51.902;9.542;2023-05-10T21:43:32;18.20;1.00
463;DHT22;218;51.902;9.542;2023-05-10T21:48:26;18.20;1.00
463;DHT22;218;51.902;9.542;2023-05-10T21:53:20;18.30;1.00
463;DHT22;218;51.902;9.542;2023-05-10T21:55:49;18.40;1.00
463;DHT22;218;51.902;9.542;2023-05-10T21:58:16;18.20;1.00
463;DHT22;218;51.902;9.542;2023-05-10T22:00:43;18.20;1.00
463;DHT22;218;51.902;9.542;2023-05-10T22:03:10;18.10;1.00
463;DHT22;218;51.902;9.542;2023-05-10T22:05:37;17.80;1.00
463;DHT22;218;51.902;9.542;2023-05-10T22:08:05;18.10;1.00
463;DHT22;218;51.902;9.542;2023-05-10T22:13:56;18.10;1.00
463;DHT22;218;51.902;9.542;2023-05-10T22:16:23;18.10;1.00
463;DHT22;218;51.902;9.542;2023-05-10T22:23:46;18.20;1.00
463;DHT22;218;51.902;9.542;2023-05-10T22:28:40;18.20;1.00
463;DHT22;218;51.902;9.542;2023-05-10T22:31:09;18.00;1.00
463;DHT22;218;51.902;9.542;2023-05-10T22:33:36;18.10;1.00
463;DHT22;218;51.902;9.542;2023-05-10T22:36:04;18.00;1.00
463;DHT22;218;51.902;9.542;2023-05-10T22:38:31;17.60;1.00
463;DHT22;218;51.902;9.542;2023-05-10T22:40:58;18.20;1.00
463;DHT22;218;51.902;9.542;2023-05-10T22:45:52;17.90;1.00
463;DHT22;218;51.902;9.542;2023-05-10T22:53:15;18.10;1.00
463;DHT22;218;51.902;9.542;2023-05-10T22:55:42;18.10;1.00
463;DHT22;218;51.902;9.542;2023-05-10T23:00:36;18.20;1.00